Ana Sayfa
METAR-TAF:

METAR-TAF

Havaalanları :

Chester, Connecticut, Amerika Birleşik Devletleri

Enlem: 41-23-02N, Boylam: 072-30-21W, yükseklik: 127 m

Güncel hava durumu gözlemi

Rapor saat 12:55 UTC de 18 dakika önce yapıldı.
Rüzgar güney/güneybatıdan 9 kt
Sıcaklık 19°C
Nem 94%
Basınç 1014 hPa
Görüş mesafesi: 11.3 km
500 ft yükseklikte parçalı çok bulutlu
11000 ft yükseklikte parçalı çok bulutlu

METAR: KSNC 161255Z AUTO 20009KT 7SM BKN005 BKN110 19/18 A2993 RMK AO2

Saat: 09:13 (13:13 UTC)


TAF: eksik

4.000'den fazla havaalanı için hava durumu gözlemleri ve tahminleri (METAR ve TAF raporları).

Kullanılabilir istasyonlar harita üzerinde sarı ve kırmızı noktalarla gösterilir.

İstasyonun adını görmek için fareyi noktanın üzerinde gezdirin.

Sonrasında hava gözlem ve tahminlerini görmek için tıklayın.

Haritayı değiştirmek için: yaklaştırmak için siyah artı işaretli yeşil düğmeye ve uzaklaştırmak için de eksi işaretli düğmeye hızla tıklayın; bitişik haritalar için yeşil okları kullanın.


METAR-TAF: